Hanton Trader Vi — DUHT — position and weather

sailwx.info

Track history (hours):
 
Tides and Currents Weather Stations Pressure Air Temp Water Temp Dewpoint Dewpoint Depression Visibility Wind Speed Wind Dir Waves Ship Positions

Hanton Trader Vi

Last reported at 2017-Nov-18 04:48 UTC. Time now 2017-Nov-18 10:34 UTC.
Position N 53°25' W 004°12'.

Length 229 m; draft 12.7 m.

Type: Cargo ship. MMSI: 548930000.

Date/timePositionNaut miles runAvg speedWind from/ knotsBaromVisibWave heightAir tempDewpointWater temp
2017-Nov-18 04:48N 53°25' W 004°12'0 0.4
2017-Nov-18 04:24N 53°25' W 004°12'0 0.1
2017-Nov-18 03:03N 53°25' W 004°12'0 0.0
2017-Nov-18 03:00N 53°25' W 004°12'0 0.0
2017-Nov-18 02:30N 53°25' W 004°12'0 0.0
2017-Nov-17 23:45N 53°25' W 004°12'0 0.0
2017-Nov-17 14:39N 53°25' W 004°12'0 0.0
2017-Nov-17 14:24N 53°25' W 004°12'0 0.0
2017-Nov-17 04:36N 53°25' W 004°12'0 0.1
2017-Nov-17 02:15N 53°25' W 004°12'0 0.0
2017-Nov-17 02:00N 53°25' W 004°12'0 0.0
2017-Nov-17 01:30N 53°25' W 004°12'0 0.0
2017-Nov-17 00:51N 53°25' W 004°12'0 0.0
2017-Nov-17 00:30N 53°25' W 004°12'0 0.0
2017-Nov-16 23:54N 53°25' W 004°12'0 0.0
2017-Nov-16 23:06N 53°25' W 004°12'0 0.0
2017-Nov-16 14:09N 53°25' W 004°12'0 0.0
2017-Nov-16 13:45N 53°25' W 004°12'0 0.0
2017-Nov-16 13:27N 53°25' W 004°12'0 0.0
2017-Nov-16 13:00N 53°25' W 004°12'0 0.0
2017-Nov-16 12:15N 53°25' W 004°12'0 0.0
2017-Nov-16 11:51N 53°25' W 004°12'0 0.0
2017-Nov-16 11:27N 53°25' W 004°12'0 0.0
2017-Nov-16 04:54N 53°25' W 004°12'0 0.1
2017-Nov-16 04:00N 53°25' W 004°12'0 0.2
2017-Nov-16 03:21N 53°25' W 004°12'0 0.2
2017-Nov-16 02:54N 53°25' W 004°12'0 0.0
2017-Nov-16 01:18N 53°25' W 004°12'0 0.0
2017-Nov-16 01:00N 53°25' W 004°12'0 0.0
2017-Nov-16 00:09N 53°25' W 004°12'0 0.0
2017-Nov-15 23:36N 53°25' W 004°12'0 0.0
2017-Nov-15 23:21N 53°25' W 004°12'0 0.1
2017-Nov-15 21:36N 53°25' W 004°12'0 0.5
2017-Nov-15 21:27N 53°25' W 004°12'2 3.4
2017-Nov-15 20:56N 53°27' W 004°14'8411.4
2017-Nov-15 13:35N 52°18' W 005°32'112.2
2017-Nov-15 13:30N 52°17' W 005°33'612.0
2017-Nov-15 13:00N 52°11' W 005°36'4012.0
2017-Nov-15 09:40N 51°33' W 005°55'213.1
2017-Nov-15 09:30N 51°31' W 005°56'  
2017-Nov-12 16:40N 38°35' W 012°18'512.0
2017-Nov-12 16:17N 38°31' W 012°20'2212.4
2017-Nov-12 14:32N 38°09' W 012°26'212.4
2017-Nov-12 14:23N 38°08' W 012°27'912.6
2017-Nov-12 13:42N 37°59' W 012°29'9712.7
2017-Nov-12 06:04N 36°25' W 012°58'112.9
2017-Nov-12 06:00N 36°25' W 012°59'812.7
2017-Nov-12 05:22N 36°17' W 013°01'26511.4
2017-Nov-11 06:06N 31°59' W 014°17'1 9.6
2017-Nov-11 06:00N 31°58' W 014°18'5 9.7
2017-Nov-11 05:28N 31°53' W 014°19'5 9.3
2017-Nov-11 04:57N 31°48' W 014°20'29 8.8
2017-Nov-11 01:39N 31°20' W 014°29'11 8.8
2017-Nov-11 00:24N 31°09' W 014°32'7 8.7
2017-Nov-10 23:36N 31°02' W 014°34'2 8.5
2017-Nov-10 23:25N 31°01' W 014°34'3 8.5
2017-Nov-10 23:00N 30°58' W 014°35'4 8.4
2017-Nov-10 22:30N 30°53' W 014°36'4 8.6
2017-Nov-10 22:00N 30°49' W 014°37'4 8.4
2017-Nov-10 21:30N 30°45' W 014°38'11 8.5
2017-Nov-10 20:12N 30°34' W 014°42'2 8.2
2017-Nov-10 20:00N 30°33' W 014°42'4 8.5
2017-Nov-10 19:30N 30°29' W 014°43'4 8.4
2017-Nov-10 19:00N 30°25' W 014°44'4 8.5
2017-Nov-10 18:30N 30°21' W 014°46'4 8.0
2017-Nov-10 18:00N 30°17' W 014°47'4 7.7
2017-Nov-10 17:30N 30°13' W 014°47'4 7.8
2017-Nov-10 17:00N 30°09' W 014°49'4 7.5
2017-Nov-10 16:30N 30°06' W 014°50'4 7.4
2017-Nov-10 15:57N 30°02' W 014°51'5 7.7
2017-Nov-10 15:20N 29°57' W 014°52'4 7.8
2017-Nov-10 14:50N 29°53' W 014°53'6 7.9
2017-Nov-10 14:06N 29°48' W 014°55'1 8.4
2017-Nov-10 13:59N 29°47' W 014°55'4 8.3
2017-Nov-10 13:29N 29°43' W 014°56'4 8.1
2017-Nov-10 13:00N 29°39' W 014°57'4 8.3
2017-Nov-10 12:30N 29°35' W 014°58'4 8.2
2017-Nov-10 12:00N 29°31' W 014°60'4 8.0
2017-Nov-10 11:30N 29°27' W 015°01'4 8.0
2017-Nov-10 11:00N 29°23' W 015°02'4 8.3
2017-Nov-10 10:30N 29°19' W 015°03'4 5.0
2017-Nov-10 09:45N 29°15' W 015°04'0 0.9
2017-Nov-10 09:29N 29°15' W 015°04'4 7.4
2017-Nov-10 08:59N 29°12' W 015°05'4 8.4
2017-Nov-10 08:30N 29°08' W 015°06'4 8.4
2017-Nov-10 07:59N 29°03' W 015°07'4 8.6
2017-Nov-10 07:29N 28°59' W 015°08'4 8.3
2017-Nov-10 07:00N 28°56' W 015°10'4 8.6
2017-Nov-10 06:30N 28°51' W 015°11'5 8.8
2017-Nov-10 06:00N 28°47' W 015°12'5 9.3
2017-Nov-10 05:30N 28°42' W 015°13'510.2
2017-Nov-10 05:00N 28°38' W 015°15'510.9
2017-Nov-10 04:30N 28°32' W 015°16'611.6
2017-Nov-10 04:00N 28°26' W 015°18'611.3
2017-Nov-10 03:30N 28°21' W 015°19'511.0
2017-Nov-10 03:00N 28°16' W 015°21'510.8
2017-Nov-10 02:30N 28°10' W 015°22'4 7.8
2017-Nov-10 02:00N 28°07' W 015°24'1 1.1
2017-Nov-10 01:22N 28°07' W 015°25'0 0.1
2017-Nov-10 00:52N 28°07' W 015°25'0 0.0
2017-Nov-10 00:22N 28°07' W 015°25'0 0.0
2017-Nov-09 23:55N 28°07' W 015°25'0 0.2
2017-Nov-09 23:25N 28°07' W 015°25'0 0.0
2017-Nov-09 22:55N 28°07' W 015°25'0 0.0
2017-Nov-09 22:25N 28°07' W 015°25'0 0.1
2017-Nov-09 21:55N 28°07' W 015°25'0 0.0
2017-Nov-09 21:25N 28°07' W 015°25'0 0.0
2017-Nov-09 20:58N 28°07' W 015°25'0 0.0
2017-Nov-09 20:28N 28°07' W 015°25'0 0.0
2017-Nov-09 19:58N 28°07' W 015°25'0 0.1
2017-Nov-09 19:28N 28°07' W 015°25'0 0.1
2017-Nov-09 18:58N 28°07' W 015°25'0 0.1
2017-Nov-09 18:28N 28°07' W 015°25'0 0.1
2017-Nov-09 17:58N 28°07' W 015°25'1 1.8
2017-Nov-09 17:30N 28°07' W 015°24'0 0.1
2017-Nov-09 16:56N 28°07' W 015°24'0 0.0
2017-Nov-09 16:26N 28°07' W 015°24'0 0.1
2017-Nov-09 15:56N 28°07' W 015°24'0 0.0
2017-Nov-09 15:26N 28°07' W 015°24'0 0.0
2017-Nov-09 14:53N 28°07' W 015°24'0 0.0
2017-Nov-09 14:26N 28°07' W 015°24'0 0.0
2017-Nov-09 13:59N 28°07' W 015°24'0 0.0
2017-Nov-09 13:29N 28°07' W 015°24'0 0.0
2017-Nov-09 12:59N 28°07' W 015°24'0 0.0
2017-Nov-09 12:29N 28°07' W 015°24'0 0.0
2017-Nov-09 11:59N 28°07' W 015°24'0 0.0
2017-Nov-09 11:29N 28°07' W 015°24'0 0.0
2017-Nov-09 10:59N 28°07' W 015°24'0 0.0
2017-Nov-09 10:29N 28°07' W 015°24'0 0.0
2017-Nov-09 09:59N 28°07' W 015°24'0 0.0
2017-Nov-09 09:17N 28°07' W 015°24'0 0.1
2017-Nov-09 08:56N 28°07' W 015°24'0 0.0
2017-Nov-09 08:26N 28°07' W 015°24'0 0.0
2017-Nov-09 07:56N 28°07' W 015°24'0 0.0
2017-Nov-09 07:26N 28°07' W 015°24'0 0.0
2017-Nov-09 06:56N 28°07' W 015°24'0 0.0
2017-Nov-09 06:29N 28°07' W 015°24'0 0.0
2017-Nov-09 05:59N 28°07' W 015°24'0 0.0
2017-Nov-09 05:29N 28°07' W 015°24'0 0.0
2017-Nov-09 04:59N 28°07' W 015°24'0 0.1
2017-Nov-09 04:29N 28°07' W 015°24'0 0.1
2017-Nov-09 03:47N 28°07' W 015°24'0 0.2
2017-Nov-09 03:29N 28°07' W 015°24'0 0.1
2017-Nov-09 02:59N 28°07' W 015°24'0 0.0
2017-Nov-09 02:29N 28°07' W 015°24'0 0.1
2017-Nov-09 01:59N 28°07' W 015°24'0 0.0
2017-Nov-09 01:29N 28°07' W 015°24'0 0.0
2017-Nov-09 00:59N 28°07' W 015°24'0 0.0
2017-Nov-09 00:29N 28°07' W 015°24'0 0.1
2017-Nov-08 23:59N 28°07' W 015°24'0 0.0
2017-Nov-08 23:20N 28°07' W 015°24'0 0.0
2017-Nov-08 22:50N 28°07' W 015°24'0 0.0
2017-Nov-08 22:20N 28°07' W 015°24'0 0.0
2017-Nov-08 21:50N 28°07' W 015°24'0 0.1
2017-Nov-08 21:23N 28°07' W 015°24'0 0.0
2017-Nov-08 20:53N 28°07' W 015°24'0 0.2
2017-Nov-08 20:23N 28°07' W 015°24'0 0.2
2017-Nov-08 19:53N 28°07' W 015°24'0 0.1
2017-Nov-08 19:26N 28°07' W 015°24'0 0.1
2017-Nov-08 18:56N 28°07' W 015°24'0 0.1
2017-Nov-08 18:26N 28°07' W 015°24'0 0.1
2017-Nov-08 17:56N 28°07' W 015°24'0 0.1
2017-Nov-08 17:26N 28°07' W 015°24'0 0.0
2017-Nov-08 16:56N 28°07' W 015°24'0 0.0
2017-Nov-08 16:29N 28°07' W 015°24'0 0.0
2017-Nov-08 15:59N 28°07' W 015°24'0 0.0
2017-Nov-08 15:29N 28°07' W 015°24'0 0.1
2017-Nov-08 14:59N 28°07' W 015°24'0 0.0
2017-Nov-08 14:29N 28°07' W 015°24'0 0.1
2017-Nov-08 13:59N 28°07' W 015°24'0 0.0
2017-Nov-08 13:29N 28°07' W 015°24'0 0.0
2017-Nov-08 12:59N 28°07' W 015°24'0 0.1
2017-Nov-08 12:29N 28°07' W 015°24'0 0.0
2017-Nov-08 11:59N 28°07' W 015°24'0 0.0
2017-Nov-08 11:29N 28°07' W 015°24'0 0.0
2017-Nov-08 10:49N 28°07' W 015°24'0 0.1
2017-Nov-08 10:30N 28°07' W 015°24'0 0.2
2017-Nov-08 10:00N 28°07' W 015°24'1 2.0
2017-Nov-08 09:30N 28°07' W 015°23'1 1.1
2017-Nov-08 09:00N 28°06' W 015°22'0 0.4
2017-Nov-08 08:30N 28°06' W 015°22'2 4.7
2017-Nov-08 08:00N 28°05' W 015°20'4 8.7
2017-Nov-08 07:30N 28°02' W 015°17'5 9.2
2017-Nov-08 07:00N 27°57' W 015°16'5 9.9
2017-Nov-08 06:30N 27°52' W 015°16'5 9.8
2017-Nov-08 06:00N 27°47' W 015°16'510.3
2017-Nov-08 05:30N 27°42' W 015°17'  
Track history (hours):
 
Tides and Currents Weather Stations Pressure Air Temp Water Temp Dewpoint Dewpoint Depression Visibility Wind Speed Wind Dir Waves Ship Positions

Hanton Trader Vi

Last reported at 2017-Nov-18 04:48 UTC. Time now 2017-Nov-18 10:34 UTC.
Position N 53°25' W 004°12'.

Length 229 m; draft 12.7 m.

Type: Cargo ship. MMSI: 548930000.

Date/timePositionNaut miles runAvg speedWind from/ knotsBaromVisibWave heightAir tempDewpointWater temp
2017-Nov-18 04:48N 53°25' W 004°12'0 0.4
2017-Nov-18 04:24N 53°25' W 004°12'0 0.1
2017-Nov-18 03:03N 53°25' W 004°12'0 0.0
2017-Nov-18 03:00N 53°25' W 004°12'0 0.0
2017-Nov-18 02:30N 53°25' W 004°12'0 0.0
2017-Nov-17 23:45N 53°25' W 004°12'0 0.0
2017-Nov-17 14:39N 53°25' W 004°12'0 0.0
2017-Nov-17 14:24N 53°25' W 004°12'0 0.0
2017-Nov-17 04:36N 53°25' W 004°12'0 0.1
2017-Nov-17 02:15N 53°25' W 004°12'0 0.0
2017-Nov-17 02:00N 53°25' W 004°12'0 0.0
2017-Nov-17 01:30N 53°25' W 004°12'0 0.0
2017-Nov-17 00:51N 53°25' W 004°12'0 0.0
2017-Nov-17 00:30N 53°25' W 004°12'0 0.0
2017-Nov-16 23:54N 53°25' W 004°12'0 0.0
2017-Nov-16 23:06N 53°25' W 004°12'0 0.0
2017-Nov-16 14:09N 53°25' W 004°12'0 0.0
2017-Nov-16 13:45N 53°25' W 004°12'0 0.0
2017-Nov-16 13:27N 53°25' W 004°12'0 0.0
2017-Nov-16 13:00N 53°25' W 004°12'0 0.0
2017-Nov-16 12:15N 53°25' W 004°12'0 0.0
2017-Nov-16 11:51N 53°25' W 004°12'0 0.0
2017-Nov-16 11:27N 53°25' W 004°12'0 0.0
2017-Nov-16 04:54N 53°25' W 004°12'0 0.1
2017-Nov-16 04:00N 53°25' W 004°12'0 0.2
2017-Nov-16 03:21N 53°25' W 004°12'0 0.2
2017-Nov-16 02:54N 53°25' W 004°12'0 0.0
2017-Nov-16 01:18N 53°25' W 004°12'0 0.0
2017-Nov-16 01:00N 53°25' W 004°12'0 0.0
2017-Nov-16 00:09N 53°25' W 004°12'0 0.0
2017-Nov-15 23:36N 53°25' W 004°12'0 0.0
2017-Nov-15 23:21N 53°25' W 004°12'0 0.1
2017-Nov-15 21:36N 53°25' W 004°12'0 0.5
2017-Nov-15 21:27N 53°25' W 004°12'2 3.4
2017-Nov-15 20:56N 53°27' W 004°14'8411.4
2017-Nov-15 13:35N 52°18' W 005°32'112.2
2017-Nov-15 13:30N 52°17' W 005°33'612.0
2017-Nov-15 13:00N 52°11' W 005°36'4012.0
2017-Nov-15 09:40N 51°33' W 005°55'213.1
2017-Nov-15 09:30N 51°31' W 005°56'  
2017-Nov-12 16:40N 38°35' W 012°18'512.0
2017-Nov-12 16:17N 38°31' W 012°20'2212.4
2017-Nov-12 14:32N 38°09' W 012°26'212.4
2017-Nov-12 14:23N 38°08' W 012°27'912.6
2017-Nov-12 13:42N 37°59' W 012°29'9712.7
2017-Nov-12 06:04N 36°25' W 012°58'112.9
2017-Nov-12 06:00N 36°25' W 012°59'812.7
2017-Nov-12 05:22N 36°17' W 013°01'26511.4
2017-Nov-11 06:06N 31°59' W 014°17'1 9.6
2017-Nov-11 06:00N 31°58' W 014°18'5 9.7
2017-Nov-11 05:28N 31°53' W 014°19'5 9.3
2017-Nov-11 04:57N 31°48' W 014°20'29 8.8
2017-Nov-11 01:39N 31°20' W 014°29'11 8.8
2017-Nov-11 00:24N 31°09' W 014°32'7 8.7
2017-Nov-10 23:36N 31°02' W 014°34'2 8.5
2017-Nov-10 23:25N 31°01' W 014°34'3 8.5
2017-Nov-10 23:00N 30°58' W 014°35'4 8.4
2017-Nov-10 22:30N 30°53' W 014°36'4 8.6
2017-Nov-10 22:00N 30°49' W 014°37'4 8.4
2017-Nov-10 21:30N 30°45' W 014°38'11 8.5
2017-Nov-10 20:12N 30°34' W 014°42'2 8.2
2017-Nov-10 20:00N 30°33' W 014°42'4 8.5
2017-Nov-10 19:30N 30°29' W 014°43'4 8.4
2017-Nov-10 19:00N 30°25' W 014°44'4 8.5
2017-Nov-10 18:30N 30°21' W 014°46'4 8.0
2017-Nov-10 18:00N 30°17' W 014°47'4 7.7
2017-Nov-10 17:30N 30°13' W 014°47'4 7.8
2017-Nov-10 17:00N 30°09' W 014°49'4 7.5
2017-Nov-10 16:30N 30°06' W 014°50'4 7.4
2017-Nov-10 15:57N 30°02' W 014°51'5 7.7
2017-Nov-10 15:20N 29°57' W 014°52'4 7.8
2017-Nov-10 14:50N 29°53' W 014°53'6 7.9
2017-Nov-10 14:06N 29°48' W 014°55'1 8.4
2017-Nov-10 13:59N 29°47' W 014°55'4 8.3
2017-Nov-10 13:29N 29°43' W 014°56'4 8.1
2017-Nov-10 13:00N 29°39' W 014°57'4 8.3
2017-Nov-10 12:30N 29°35' W 014°58'4 8.2
2017-Nov-10 12:00N 29°31' W 014°60'4 8.0
2017-Nov-10 11:30N 29°27' W 015°01'4 8.0
2017-Nov-10 11:00N 29°23' W 015°02'4 8.3
2017-Nov-10 10:30N 29°19' W 015°03'4 5.0
2017-Nov-10 09:45N 29°15' W 015°04'0 0.9
2017-Nov-10 09:29N 29°15' W 015°04'4 7.4
2017-Nov-10 08:59N 29°12' W 015°05'4 8.4
2017-Nov-10 08:30N 29°08' W 015°06'4 8.4
2017-Nov-10 07:59N 29°03' W 015°07'4 8.6
2017-Nov-10 07:29N 28°59' W 015°08'4 8.3
2017-Nov-10 07:00N 28°56' W 015°10'4 8.6
2017-Nov-10 06:30N 28°51' W 015°11'5 8.8
2017-Nov-10 06:00N 28°47' W 015°12'5 9.3
2017-Nov-10 05:30N 28°42' W 015°13'510.2
2017-Nov-10 05:00N 28°38' W 015°15'510.9
2017-Nov-10 04:30N 28°32' W 015°16'611.6
2017-Nov-10 04:00N 28°26' W 015°18'611.3
2017-Nov-10 03:30N 28°21' W 015°19'511.0
2017-Nov-10 03:00N 28°16' W 015°21'510.8
2017-Nov-10 02:30N 28°10' W 015°22'4 7.8
2017-Nov-10 02:00N 28°07' W 015°24'1 1.1
2017-Nov-10 01:22N 28°07' W 015°25'0 0.1
2017-Nov-10 00:52N 28°07' W 015°25'0 0.0
2017-Nov-10 00:22N 28°07' W 015°25'0 0.0
2017-Nov-09 23:55N 28°07' W 015°25'0 0.2
2017-Nov-09 23:25N 28°07' W 015°25'0 0.0
2017-Nov-09 22:55N 28°07' W 015°25'0 0.0
2017-Nov-09 22:25N 28°07' W 015°25'0 0.1
2017-Nov-09 21:55N 28°07' W 015°25'0 0.0
2017-Nov-09 21:25N 28°07' W 015°25'0 0.0
2017-Nov-09 20:58N 28°07' W 015°25'0 0.0
2017-Nov-09 20:28N 28°07' W 015°25'0 0.0
2017-Nov-09 19:58N 28°07' W 015°25'0 0.1
2017-Nov-09 19:28N 28°07' W 015°25'0 0.1
2017-Nov-09 18:58N 28°07' W 015°25'0 0.1
2017-Nov-09 18:28N 28°07' W 015°25'0 0.1
2017-Nov-09 17:58N 28°07' W 015°25'1 1.8
2017-Nov-09 17:30N 28°07' W 015°24'0 0.1
2017-Nov-09 16:56N 28°07' W 015°24'0 0.0
2017-Nov-09 16:26N 28°07' W 015°24'0 0.1
2017-Nov-09 15:56N 28°07' W 015°24'0 0.0
2017-Nov-09 15:26N 28°07' W 015°24'0 0.0
2017-Nov-09 14:53N 28°07' W 015°24'0 0.0
2017-Nov-09 14:26N 28°07' W 015°24'0 0.0
2017-Nov-09 13:59N 28°07' W 015°24'0 0.0
2017-Nov-09 13:29N 28°07' W 015°24'0 0.0
2017-Nov-09 12:59N 28°07' W 015°24'0 0.0
2017-Nov-09 12:29N 28°07' W 015°24'0 0.0
2017-Nov-09 11:59N 28°07' W 015°24'0 0.0
2017-Nov-09 11:29N 28°07' W 015°24'0 0.0
2017-Nov-09 10:59N 28°07' W 015°24'0 0.0
2017-Nov-09 10:29N 28°07' W 015°24'0 0.0
2017-Nov-09 09:59N 28°07' W 015°24'0 0.0
2017-Nov-09 09:17N 28°07' W 015°24'0 0.1
2017-Nov-09 08:56N 28°07' W 015°24'0 0.0
2017-Nov-09 08:26N 28°07' W 015°24'0 0.0
2017-Nov-09 07:56N 28°07' W 015°24'0 0.0
2017-Nov-09 07:26N 28°07' W 015°24'0 0.0
2017-Nov-09 06:56N 28°07' W 015°24'0 0.0
2017-Nov-09 06:29N 28°07' W 015°24'0 0.0
2017-Nov-09 05:59N 28°07' W 015°24'0 0.0
2017-Nov-09 05:29N 28°07' W 015°24'0 0.0
2017-Nov-09 04:59N 28°07' W 015°24'0 0.1
2017-Nov-09 04:29N 28°07' W 015°24'0 0.1
2017-Nov-09 03:47N 28°07' W 015°24'0 0.2
2017-Nov-09 03:29N 28°07' W 015°24'0 0.1
2017-Nov-09 02:59N 28°07' W 015°24'0 0.0
2017-Nov-09 02:29N 28°07' W 015°24'0 0.1
2017-Nov-09 01:59N 28°07' W 015°24'0 0.0
2017-Nov-09 01:29N 28°07' W 015°24'0 0.0
2017-Nov-09 00:59N 28°07' W 015°24'0 0.0
2017-Nov-09 00:29N 28°07' W 015°24'0 0.1
2017-Nov-08 23:59N 28°07' W 015°24'0 0.0
2017-Nov-08 23:20N 28°07' W 015°24'0 0.0
2017-Nov-08 22:50N 28°07' W 015°24'0 0.0
2017-Nov-08 22:20N 28°07' W 015°24'0 0.0
2017-Nov-08 21:50N 28°07' W 015°24'0 0.1
2017-Nov-08 21:23N 28°07' W 015°24'0 0.0
2017-Nov-08 20:53N 28°07' W 015°24'0 0.2
2017-Nov-08 20:23N 28°07' W 015°24'0 0.2
2017-Nov-08 19:53N 28°07' W 015°24'0 0.1
2017-Nov-08 19:26N 28°07' W 015°24'0 0.1
2017-Nov-08 18:56N 28°07' W 015°24'0 0.1
2017-Nov-08 18:26N 28°07' W 015°24'0 0.1
2017-Nov-08 17:56N 28°07' W 015°24'0 0.1
2017-Nov-08 17:26N 28°07' W 015°24'0 0.0
2017-Nov-08 16:56N 28°07' W 015°24'0 0.0
2017-Nov-08 16:29N 28°07' W 015°24'0 0.0
2017-Nov-08 15:59N 28°07' W 015°24'0 0.0
2017-Nov-08 15:29N 28°07' W 015°24'0 0.1
2017-Nov-08 14:59N 28°07' W 015°24'0 0.0
2017-Nov-08 14:29N 28°07' W 015°24'0 0.1
2017-Nov-08 13:59N 28°07' W 015°24'0 0.0
2017-Nov-08 13:29N 28°07' W 015°24'0 0.0
2017-Nov-08 12:59N 28°07' W 015°24'0 0.1
2017-Nov-08 12:29N 28°07' W 015°24'0 0.0
2017-Nov-08 11:59N 28°07' W 015°24'0 0.0
2017-Nov-08 11:29N 28°07' W 015°24'0 0.0
2017-Nov-08 10:49N 28°07' W 015°24'0 0.1
2017-Nov-08 10:30N 28°07' W 015°24'0 0.2
2017-Nov-08 10:00N 28°07' W 015°24'1 2.0
2017-Nov-08 09:30N 28°07' W 015°23'1 1.1
2017-Nov-08 09:00N 28°06' W 015°22'0 0.4
2017-Nov-08 08:30N 28°06' W 015°22'2 4.7
2017-Nov-08 08:00N 28°05' W 015°20'4 8.7
2017-Nov-08 07:30N 28°02' W 015°17'5 9.2
2017-Nov-08 07:00N 27°57' W 015°16'5 9.9
2017-Nov-08 06:30N 27°52' W 015°16'5 9.8
2017-Nov-08 06:00N 27°47' W 015°16'510.3
2017-Nov-08 05:30N 27°42' W 015°17'  

Dump ship's entire track history